sensor_id;sensor_type;location;lat;lon;timestamp;P1;durP1;ratioP1;P2;durP2;ratioP2
71600;SDS011;59446;52.192;4.628;2023-03-01T00:00:37;2.25;;;1.00;;
71600;SDS011;59446;52.192;4.628;2023-03-01T00:03:03;2.13;;;1.10;;
71600;SDS011;59446;52.192;4.628;2023-03-01T00:05:29;1.65;;;1.00;;
71600;SDS011;59446;52.192;4.628;2023-03-01T00:07:54;2.00;;;0.90;;
71600;SDS011;59446;52.192;4.628;2023-03-01T00:10:20;2.67;;;0.90;;
71600;SDS011;59446;52.192;4.628;2023-03-01T00:12:45;1.60;;;0.93;;
71600;SDS011;59446;52.192;4.628;2023-03-01T00:15:10;1.87;;;1.00;;
71600;SDS011;59446;52.192;4.628;2023-03-01T00:17:36;1.38;;;0.85;;
71600;SDS011;59446;52.192;4.628;2023-03-01T00:20:02;3.83;;;0.80;;
71600;SDS011;59446;52.192;4.628;2023-03-01T00:22:27;1.55;;;0.70;;
71600;SDS011;59446;52.192;4.628;2023-03-01T00:24:53;1.90;;;0.80;;
71600;SDS011;59446;52.192;4.628;2023-03-01T00:27:18;2.80;;;1.40;;
71600;SDS011;59446;52.192;4.628;2023-03-01T00:29:44;1.23;;;0.70;;
71600;SDS011;59446;52.192;4.628;2023-03-01T00:32:09;1.67;;;1.00;;
71600;SDS011;59446;52.192;4.628;2023-03-01T00:34:35;2.10;;;0.90;;
71600;SDS011;59446;52.192;4.628;2023-03-01T00:37:00;1.67;;;0.73;;
71600;SDS011;59446;52.192;4.628;2023-03-01T00:39:30;2.28;;;0.90;;
71600;SDS011;59446;52.192;4.628;2023-03-01T00:41:57;1.42;;;0.77;;
71600;SDS011;59446;52.192;4.628;2023-03-01T00:44:22;1.93;;;1.10;;
71600;SDS011;59446;52.192;4.628;2023-03-01T00:46:48;2.57;;;0.93;;
71600;SDS011;59446;52.192;4.628;2023-03-01T00:49:13;0.90;;;0.60;;
71600;SDS011;59446;52.192;4.628;2023-03-01T00:51:39;1.58;;;0.70;;
71600;SDS011;59446;52.192;4.628;2023-03-01T00:54:07;1.08;;;0.85;;
71600;SDS011;59446;52.192;4.628;2023-03-01T00:56:34;2.90;;;1.17;;
71600;SDS011;59446;52.192;4.628;2023-03-01T00:58:59;1.83;;;0.85;;
71600;SDS011;59446;52.192;4.628;2023-03-01T01:01:26;1.53;;;0.60;;
71600;SDS011;59446;52.192;4.628;2023-03-01T01:03:57;1.67;;;0.90;;
71600;SDS011;59446;52.192;4.628;2023-03-01T01:06:25;2.40;;;0.88;;
71600;SDS011;59446;52.192;4.628;2023-03-01T01:08:55;1.00;;;0.80;;
71600;SDS011;59446;52.192;4.628;2023-03-01T01:11:22;1.60;;;0.90;;
71600;SDS011;59446;52.192;4.628;2023-03-01T01:13:49;1.60;;;0.80;;
71600;SDS011;59446;52.192;4.628;2023-03-01T01:16:16;2.28;;;0.80;;
71600;SDS011;59446;52.192;4.628;2023-03-01T01:18:43;2.05;;;1.00;;
71600;SDS011;59446;52.192;4.628;2023-03-01T01:21:11;2.13;;;0.80;;
71600;SDS011;59446;52.192;4.628;2023-03-01T01:23:38;1.87;;;0.90;;
71600;SDS011;59446;52.192;4.628;2023-03-01T01:26:06;1.75;;;0.80;;
71600;SDS011;59446;52.192;4.628;2023-03-01T01:28:32;2.05;;;0.70;;
71600;SDS011;59446;52.192;4.628;2023-03-01T01:30:58;2.90;;;1.10;;
71600;SDS011;59446;52.192;4.628;2023-03-01T01:33:24;1.80;;;0.88;;
71600;SDS011;59446;52.192;4.628;2023-03-01T01:35:50;1.43;;;0.80;;
71600;SDS011;59446;52.192;4.628;2023-03-01T01:38:15;1.63;;;0.93;;
71600;SDS011;59446;52.192;4.628;2023-03-01T01:40:47;2.30;;;0.70;;
71600;SDS011;59446;52.192;4.628;2023-03-01T01:43:31;3.40;;;1.00;;
71600;SDS011;59446;52.192;4.628;2023-03-01T01:46:01;1.75;;;0.80;;
71600;SDS011;59446;52.192;4.628;2023-03-01T01:48:50;1.77;;;0.83;;
71600;SDS011;59446;52.192;4.628;2023-03-01T01:51:23;2.15;;;0.80;;
71600;SDS011;59446;52.192;4.628;2023-03-01T01:53:53;1.33;;;0.88;;
71600;SDS011;59446;52.192;4.628;2023-03-01T01:56:24;1.58;;;0.75;;
71600;SDS011;59446;52.192;4.628;2023-03-01T01:58:52;1.03;;;0.63;;
71600;SDS011;59446;52.192;4.628;2023-03-01T02:01:18;2.15;;;0.80;;
71600;SDS011;59446;52.192;4.628;2023-03-01T02:03:44;1.88;;;0.93;;
71600;SDS011;59446;52.192;4.628;2023-03-01T02:06:13;1.37;;;0.67;;
71600;SDS011;59446;52.192;4.628;2023-03-01T02:08:44;1.30;;;0.88;;
71600;SDS011;59446;52.192;4.628;2023-03-01T02:11:12;1.40;;;0.75;;
71600;SDS011;59446;52.192;4.628;2023-03-01T02:13:39;0.90;;;0.60;;
71600;SDS011;59446;52.192;4.628;2023-03-01T02:16:09;0.80;;;0.60;;
71600;SDS011;59446;52.192;4.628;2023-03-01T02:18:38;2.13;;;0.80;;
71600;SDS011;59446;52.192;4.628;2023-03-01T02:21:14;1.55;;;0.73;;
71600;SDS011;59446;52.192;4.628;2023-03-01T02:24:52;2.97;;;0.70;;
71600;SDS011;59446;52.192;4.628;2023-03-01T02:27:15;1.77;;;0.82;;
71600;SDS011;59446;52.192;4.628;2023-03-01T02:29:42;1.63;;;0.90;;
71600;SDS011;59446;52.192;4.628;2023-03-01T02:32:08;1.33;;;0.70;;
71600;SDS011;59446;52.192;4.628;2023-03-01T02:34:37;2.25;;;0.80;;
71600;SDS011;59446;52.192;4.628;2023-03-01T02:37:06;2.15;;;1.10;;
71600;SDS011;59446;52.192;4.628;2023-03-01T02:39:39;3.13;;;0.60;;
71600;SDS011;59446;52.192;4.628;2023-03-01T02:42:15;1.30;;;0.60;;
71600;SDS011;59446;52.192;4.628;2023-03-01T02:44:46;1.40;;;0.65;;
71600;SDS011;59446;52.192;4.628;2023-03-01T02:47:11;2.07;;;0.93;;
71600;SDS011;59446;52.192;4.628;2023-03-01T02:49:37;1.60;;;0.90;;
71600;SDS011;59446;52.192;4.628;2023-03-01T02:54:39;1.05;;;0.75;;
71600;SDS011;59446;52.192;4.628;2023-03-01T02:57:05;3.67;;;1.10;;
71600;SDS011;59446;52.192;4.628;2023-03-01T02:59:33;0.75;;;0.60;;
71600;SDS011;59446;52.192;4.628;2023-03-01T03:02:04;2.27;;;0.80;;
71600;SDS011;59446;52.192;4.628;2023-03-01T03:04:30;1.90;;;0.95;;
71600;SDS011;59446;52.192;4.628;2023-03-01T03:06:57;1.27;;;0.80;;
71600;SDS011;59446;52.192;4.628;2023-03-01T03:09:22;1.57;;;0.70;;
71600;SDS011;59446;52.192;4.628;2023-03-01T03:11:48;2.35;;;0.82;;
71600;SDS011;59446;52.192;4.628;2023-03-01T03:14:14;3.03;;;0.80;;
71600;SDS011;59446;52.192;4.628;2023-03-01T03:16:41;1.45;;;0.80;;
71600;SDS011;59446;52.192;4.628;2023-03-01T03:19:11;1.33;;;0.70;;
71600;SDS011;59446;52.192;4.628;2023-03-01T03:21:37;2.88;;;1.00;;
71600;SDS011;59446;52.192;4.628;2023-03-01T03:24:03;1.00;;;0.60;;
71600;SDS011;59446;52.192;4.628;2023-03-01T03:26:28;2.38;;;1.08;;
71600;SDS011;59446;52.192;4.628;2023-03-01T03:28:54;1.30;;;0.60;;
71600;SDS011;59446;52.192;4.628;2023-03-01T03:31:20;1.77;;;1.00;;
71600;SDS011;59446;52.192;4.628;2023-03-01T03:33:46;1.43;;;0.70;;
71600;SDS011;59446;52.192;4.628;2023-03-01T03:36:19;1.40;;;0.90;;
71600;SDS011;59446;52.192;4.628;2023-03-01T03:38:46;2.13;;;0.90;;
71600;SDS011;59446;52.192;4.628;2023-03-01T03:41:12;1.75;;;0.88;;
71600;SDS011;59446;52.192;4.628;2023-03-01T03:43:38;1.63;;;0.80;;
71600;SDS011;59446;52.192;4.628;2023-03-01T03:46:05;1.98;;;0.93;;
71600;SDS011;59446;52.192;4.628;2023-03-01T03:48:35;1.17;;;0.80;;
71600;SDS011;59446;52.192;4.628;2023-03-01T03:51:01;2.13;;;1.08;;
71600;SDS011;59446;52.192;4.628;2023-03-01T03:53:30;1.30;;;0.77;;
71600;SDS011;59446;52.192;4.628;2023-03-01T03:55:55;1.38;;;0.80;;
71600;SDS011;59446;52.192;4.628;2023-03-01T03:58:21;1.43;;;0.70;;
71600;SDS011;59446;52.192;4.628;2023-03-01T04:00:50;2.00;;;0.80;;
71600;SDS011;59446;52.192;4.628;2023-03-01T04:03:17;1.00;;;0.63;;
71600;SDS011;59446;52.192;4.628;2023-03-01T04:05:45;1.13;;;0.63;;
71600;SDS011;59446;52.192;4.628;2023-03-01T04:08:11;1.70;;;0.90;;
71600;SDS011;59446;52.192;4.628;2023-03-01T04:10:37;1.23;;;0.77;;
71600;SDS011;59446;52.192;4.628;2023-03-01T04:13:11;2.13;;;0.73;;
71600;SDS011;59446;52.192;4.628;2023-03-01T04:15:38;1.50;;;0.98;;
71600;SDS011;59446;52.192;4.628;2023-03-01T04:18:04;1.20;;;0.70;;
71600;SDS011;59446;52.192;4.628;2023-03-01T04:20:31;1.58;;;0.80;;
71600;SDS011;59446;52.192;4.628;2023-03-01T04:25:51;1.30;;;0.73;;
71600;SDS011;59446;52.192;4.628;2023-03-01T04:28:32;1.08;;;0.80;;
71600;SDS011;59446;52.192;4.628;2023-03-01T04:31:07;1.20;;;0.60;;
71600;SDS011;59446;52.192;4.628;2023-03-01T04:33:46;1.20;;;0.70;;
71600;SDS011;59446;52.192;4.628;2023-03-01T04:36:13;1.33;;;0.63;;
71600;SDS011;59446;52.192;4.628;2023-03-01T04:38:40;2.40;;;1.00;;
71600;SDS011;59446;52.192;4.628;2023-03-01T04:41:07;1.10;;;0.80;;
71600;SDS011;59446;52.192;4.628;2023-03-01T04:43:34;1.50;;;0.77;;
71600;SDS011;59446;52.192;4.628;2023-03-01T04:46:04;1.15;;;0.75;;
71600;SDS011;59446;52.192;4.628;2023-03-01T04:48:34;1.40;;;0.80;;
71600;SDS011;59446;52.192;4.628;2023-03-01T04:51:00;0.82;;;0.55;;
71600;SDS011;59446;52.192;4.628;2023-03-01T04:53:26;1.20;;;0.80;;
71600;SDS011;59446;52.192;4.628;2023-03-01T04:55:52;1.65;;;0.60;;
71600;SDS011;59446;52.192;4.628;2023-03-01T04:58:20;1.08;;;0.60;;
71600;SDS011;59446;52.192;4.628;2023-03-01T05:00:50;1.30;;;0.70;;
71600;SDS011;59446;52.192;4.628;2023-03-01T05:03:16;1.48;;;0.80;;
71600;SDS011;59446;52.192;4.628;2023-03-01T05:05:44;1.10;;;0.70;;
71600;SDS011;59446;52.192;4.628;2023-03-01T05:08:11;1.27;;;0.80;;
71600;SDS011;59446;52.192;4.628;2023-03-01T05:10:44;1.15;;;0.63;;
71600;SDS011;59446;52.192;4.628;2023-03-01T05:13:11;0.88;;;0.60;;
71600;SDS011;59446;52.192;4.628;2023-03-01T05:15:38;1.47;;;0.73;;
71600;SDS011;59446;52.192;4.628;2023-03-01T05:18:04;1.77;;;0.75;;
71600;SDS011;59446;52.192;4.628;2023-03-01T05:20:36;1.10;;;0.80;;
71600;SDS011;59446;52.192;4.628;2023-03-01T05:23:03;0.98;;;0.70;;
71600;SDS011;59446;52.192;4.628;2023-03-01T05:25:30;1.00;;;0.70;;
71600;SDS011;59446;52.192;4.628;2023-03-01T05:27:58;1.15;;;0.70;;
71600;SDS011;59446;52.192;4.628;2023-03-01T05:30:28;1.48;;;0.90;;
71600;SDS011;59446;52.192;4.628;2023-03-01T05:32:53;1.83;;;0.60;;
71600;SDS011;59446;52.192;4.628;2023-03-01T05:35:20;1.20;;;0.80;;
71600;SDS011;59446;52.192;4.628;2023-03-01T05:37:47;0.97;;;0.70;;
71600;SDS011;59446;52.192;4.628;2023-03-01T05:40:17;0.85;;;0.50;;
71600;SDS011;59446;52.192;4.628;2023-03-01T05:42:45;1.13;;;0.70;;
71600;SDS011;59446;52.192;4.628;2023-03-01T05:45:12;1.77;;;1.13;;
71600;SDS011;59446;52.192;4.628;2023-03-01T05:47:39;1.00;;;0.80;;
71600;SDS011;59446;52.192;4.628;2023-03-01T05:50:18;0.60;;;0.50;;
71600;SDS011;59446;52.192;4.628;2023-03-01T05:52:47;1.20;;;0.65;;
71600;SDS011;59446;52.192;4.628;2023-03-01T05:55:18;2.47;;;1.17;;
71600;SDS011;59446;52.192;4.628;2023-03-01T05:57:45;1.08;;;0.70;;
71600;SDS011;59446;52.192;4.628;2023-03-01T06:00:11;1.15;;;0.60;;
71600;SDS011;59446;52.192;4.628;2023-03-01T06:02:39;1.93;;;0.80;;
71600;SDS011;59446;52.192;4.628;2023-03-01T06:05:05;1.23;;;0.63;;
71600;SDS011;59446;52.192;4.628;2023-03-01T06:07:32;1.08;;;0.60;;
71600;SDS011;59446;52.192;4.628;2023-03-01T06:09:58;1.70;;;0.70;;
71600;SDS011;59446;52.192;4.628;2023-03-01T06:12:23;0.97;;;0.67;;
71600;SDS011;59446;52.192;4.628;2023-03-01T06:14:48;1.40;;;0.63;;
71600;SDS011;59446;52.192;4.628;2023-03-01T06:17:14;0.82;;;0.50;;
71600;SDS011;59446;52.192;4.628;2023-03-01T06:19:39;1.83;;;0.90;;
71600;SDS011;59446;52.192;4.628;2023-03-01T06:22:05;1.00;;;0.67;;
71600;SDS011;59446;52.192;4.628;2023-03-01T06:24:30;1.87;;;0.70;;
71600;SDS011;59446;52.192;4.628;2023-03-01T06:26:55;1.80;;;0.90;;
71600;SDS011;59446;52.192;4.628;2023-03-01T06:29:21;1.43;;;0.80;;
71600;SDS011;59446;52.192;4.628;2023-03-01T06:31:47;1.17;;;0.63;;
71600;SDS011;59446;52.192;4.628;2023-03-01T06:34:13;1.80;;;0.80;;
71600;SDS011;59446;52.192;4.628;2023-03-01T06:36:39;1.48;;;0.85;;
71600;SDS011;59446;52.192;4.628;2023-03-01T06:39:05;1.23;;;0.80;;
71600;SDS011;59446;52.192;4.628;2023-03-01T06:41:31;1.15;;;0.50;;
71600;SDS011;59446;52.192;4.628;2023-03-01T06:43:57;2.57;;;0.70;;
71600;SDS011;59446;52.192;4.628;2023-03-01T06:46:23;0.95;;;0.60;;
71600;SDS011;59446;52.192;4.628;2023-03-01T06:48:49;1.83;;;0.90;;
71600;SDS011;59446;52.192;4.628;2023-03-01T06:51:14;1.03;;;0.60;;
71600;SDS011;59446;52.192;4.628;2023-03-01T06:53:40;1.93;;;0.90;;
71600;SDS011;59446;52.192;4.628;2023-03-01T06:56:05;1.10;;;0.67;;
71600;SDS011;59446;52.192;4.628;2023-03-01T06:58:31;1.63;;;0.80;;
71600;SDS011;59446;52.192;4.628;2023-03-01T07:00:56;1.17;;;0.50;;
71600;SDS011;59446;52.192;4.628;2023-03-01T07:03:21;1.10;;;0.77;;
71600;SDS011;59446;52.192;4.628;2023-03-01T07:05:50;1.10;;;0.67;;
71600;SDS011;59446;52.192;4.628;2023-03-01T07:08:19;0.50;;;0.50;;
71600;SDS011;59446;52.192;4.628;2023-03-01T07:10:44;1.80;;;0.90;;
71600;SDS011;59446;52.192;4.628;2023-03-01T07:13:10;1.17;;;0.77;;
71600;SDS011;59446;52.192;4.628;2023-03-01T07:15:35;1.40;;;0.70;;
71600;SDS011;59446;52.192;4.628;2023-03-01T07:18:01;1.70;;;1.03;;
71600;SDS011;59446;52.192;4.628;2023-03-01T07:20:26;1.07;;;0.60;;
71600;SDS011;59446;52.192;4.628;2023-03-01T07:22:52;1.10;;;0.60;;
71600;SDS011;59446;52.192;4.628;2023-03-01T07:25:19;1.27;;;0.70;;
71600;SDS011;59446;52.192;4.628;2023-03-01T07:27:48;1.23;;;0.70;;
71600;SDS011;59446;52.192;4.628;2023-03-01T07:30:17;0.82;;;0.60;;
71600;SDS011;59446;52.192;4.628;2023-03-01T07:32:43;1.15;;;0.70;;
71600;SDS011;59446;52.192;4.628;2023-03-01T07:35:08;1.60;;;0.80;;
71600;SDS011;59446;52.192;4.628;2023-03-01T07:37:34;2.57;;;1.20;;
71600;SDS011;59446;52.192;4.628;2023-03-01T07:39:59;1.43;;;0.97;;
71600;SDS011;59446;52.192;4.628;2023-03-01T07:42:24;2.47;;;1.10;;
71600;SDS011;59446;52.192;4.628;2023-03-01T07:44:50;2.50;;;1.00;;
71600;SDS011;59446;52.192;4.628;2023-03-01T07:47:15;2.73;;;1.10;;
71600;SDS011;59446;52.192;4.628;2023-03-01T07:49:41;4.13;;;1.63;;
71600;SDS011;59446;52.192;4.628;2023-03-01T07:52:06;2.40;;;1.27;;
71600;SDS011;59446;52.192;4.628;2023-03-01T07:54:31;3.95;;;1.33;;
71600;SDS011;59446;52.192;4.628;2023-03-01T07:56:57;2.87;;;1.40;;
71600;SDS011;59446;52.192;4.628;2023-03-01T07:59:22;4.07;;;1.40;;
71600;SDS011;59446;52.192;4.628;2023-03-01T08:01:53;2.88;;;1.10;;
71600;SDS011;59446;52.192;4.628;2023-03-01T08:04:19;2.70;;;1.10;;
71600;SDS011;59446;52.192;4.628;2023-03-01T08:06:44;1.90;;;1.20;;
71600;SDS011;59446;52.192;4.628;2023-03-01T08:09:10;2.03;;;0.90;;
71600;SDS011;59446;52.192;4.628;2023-03-01T08:11:35;2.57;;;1.40;;
71600;SDS011;59446;52.192;4.628;2023-03-01T08:14:00;1.73;;;0.85;;
71600;SDS011;59446;52.192;4.628;2023-03-01T08:16:26;2.63;;;1.10;;
71600;SDS011;59446;52.192;4.628;2023-03-01T08:18:51;2.00;;;0.97;;
71600;SDS011;59446;52.192;4.628;2023-03-01T08:21:17;1.90;;;1.20;;
71600;SDS011;59446;52.192;4.628;2023-03-01T08:23:43;1.80;;;1.10;;
71600;SDS011;59446;52.192;4.628;2023-03-01T08:26:16;1.73;;;0.85;;
71600;SDS011;59446;52.192;4.628;2023-03-01T08:28:44;1.90;;;0.80;;
71600;SDS011;59446;52.192;4.628;2023-03-01T08:31:17;1.50;;;0.80;;
71600;SDS011;59446;52.192;4.628;2023-03-01T08:33:56;0.93;;;0.70;;
71600;SDS011;59446;52.192;4.628;2023-03-01T08:36:25;0.60;;;0.50;;
71600;SDS011;59446;52.192;4.628;2023-03-01T08:38:52;1.88;;;0.70;;
71600;SDS011;59446;52.192;4.628;2023-03-01T08:41:18;1.55;;;0.80;;
71600;SDS011;59446;52.192;4.628;2023-03-01T08:43:44;2.20;;;0.90;;
71600;SDS011;59446;52.192;4.628;2023-03-01T08:46:10;1.23;;;0.85;;
71600;SDS011;59446;52.192;4.628;2023-03-01T08:48:36;1.60;;;0.60;;
71600;SDS011;59446;52.192;4.628;2023-03-01T08:51:11;1.10;;;0.70;;
71600;SDS011;59446;52.192;4.628;2023-03-01T08:53:38;1.10;;;0.70;;
71600;SDS011;59446;52.192;4.628;2023-03-01T08:56:04;1.73;;;0.80;;
71600;SDS011;59446;52.192;4.628;2023-03-01T08:58:29;1.03;;;0.70;;
71600;SDS011;59446;52.192;4.628;2023-03-01T09:00:55;0.98;;;0.70;;
71600;SDS011;59446;52.192;4.628;2023-03-01T09:03:23;1.85;;;0.90;;
71600;SDS011;59446;52.192;4.628;2023-03-01T09:05:50;1.53;;;0.77;;
71600;SDS011;59446;52.192;4.628;2023-03-01T09:08:16;1.23;;;0.68;;
71600;SDS011;59446;52.192;4.628;2023-03-01T09:10:42;1.67;;;0.80;;
71600;SDS011;59446;52.192;4.628;2023-03-01T09:13:08;1.83;;;0.60;;
71600;SDS011;59446;52.192;4.628;2023-03-01T09:15:34;3.45;;;0.80;;
71600;SDS011;59446;52.192;4.628;2023-03-01T09:18:01;2.20;;;1.00;;
71600;SDS011;59446;52.192;4.628;2023-03-01T09:20:26;3.08;;;0.80;;
71600;SDS011;59446;52.192;4.628;2023-03-01T09:22:52;2.43;;;0.90;;
71600;SDS011;59446;52.192;4.628;2023-03-01T09:25:17;1.40;;;0.70;;
71600;SDS011;59446;52.192;4.628;2023-03-01T09:27:42;1.77;;;0.80;;
71600;SDS011;59446;52.192;4.628;2023-03-01T09:30:08;2.17;;;0.60;;
71600;SDS011;59446;52.192;4.628;2023-03-01T09:32:34;1.83;;;0.75;;
71600;SDS011;59446;52.192;4.628;2023-03-01T09:34:59;1.37;;;0.70;;
71600;SDS011;59446;52.192;4.628;2023-03-01T09:37:34;2.38;;;0.80;;
71600;SDS011;59446;52.192;4.628;2023-03-01T09:40:00;4.47;;;0.83;;
71600;SDS011;59446;52.192;4.628;2023-03-01T09:42:27;1.15;;;0.60;;
71600;SDS011;59446;52.192;4.628;2023-03-01T09:44:57;2.25;;;0.45;;
71600;SDS011;59446;52.192;4.628;2023-03-01T09:47:30;1.50;;;0.70;;
71600;SDS011;59446;52.192;4.628;2023-03-01T09:52:34;1.42;;;0.75;;
71600;SDS011;59446;52.192;4.628;2023-03-01T09:55:17;1.45;;;0.70;;
71600;SDS011;59446;52.192;4.628;2023-03-01T09:57:53;1.77;;;0.80;;
71600;SDS011;59446;52.192;4.628;2023-03-01T10:00:30;1.33;;;0.60;;
71600;SDS011;59446;52.192;4.628;2023-03-01T10:08:30;0.80;;;0.60;;
71600;SDS011;59446;52.192;4.628;2023-03-01T10:11:01;1.77;;;0.70;;
71600;SDS011;59446;52.192;4.628;2023-03-01T10:16:11;1.03;;;0.60;;
71600;SDS011;59446;52.192;4.628;2023-03-01T10:18:40;1.38;;;0.70;;
71600;SDS011;59446;52.192;4.628;2023-03-01T10:21:14;1.65;;;0.80;;
71600;SDS011;59446;52.192;4.628;2023-03-01T10:23:43;2.60;;;0.60;;
71600;SDS011;59446;52.192;4.628;2023-03-01T10:28:56;1.17;;;0.77;;
71600;SDS011;59446;52.192;4.628;2023-03-01T10:31:34;1.60;;;0.90;;
71600;SDS011;59446;52.192;4.628;2023-03-01T10:34:15;2.58;;;0.90;;
71600;SDS011;59446;52.192;4.628;2023-03-01T10:36:49;1.48;;;0.80;;
71600;SDS011;59446;52.192;4.628;2023-03-01T10:39:18;1.63;;;0.93;;
71600;SDS011;59446;52.192;4.628;2023-03-01T10:41:52;1.80;;;1.00;;
71600;SDS011;59446;52.192;4.628;2023-03-01T10:44:37;3.38;;;0.93;;
71600;SDS011;59446;52.192;4.628;2023-03-01T10:49:51;3.40;;;1.00;;
71600;SDS011;59446;52.192;4.628;2023-03-01T10:52:18;1.13;;;0.77;;
71600;SDS011;59446;52.192;4.628;2023-03-01T10:54:51;2.20;;;1.00;;
71600;SDS011;59446;52.192;4.628;2023-03-01T10:57:29;2.25;;;1.00;;
71600;SDS011;59446;52.192;4.628;2023-03-01T11:00:02;1.67;;;1.00;;
71600;SDS011;59446;52.192;4.628;2023-03-01T11:02:45;16.50;;;1.70;;
71600;SDS011;59446;52.192;4.628;2023-03-01T11:05:17;7.97;;;1.50;;
71600;SDS011;59446;52.192;4.628;2023-03-01T11:07:49;6.68;;;1.38;;
71600;SDS011;59446;52.192;4.628;2023-03-01T11:10:20;7.70;;;1.38;;
71600;SDS011;59446;52.192;4.628;2023-03-01T11:12:47;7.63;;;1.40;;
71600;SDS011;59446;52.192;4.628;2023-03-01T11:15:26;13.75;;;1.40;;
71600;SDS011;59446;52.192;4.628;2023-03-01T11:17:53;3.93;;;1.03;;
71600;SDS011;59446;52.192;4.628;2023-03-01T11:20:24;16.48;;;2.70;;
71600;SDS011;59446;52.192;4.628;2023-03-01T11:23:01;26.35;;;3.88;;
71600;SDS011;59446;52.192;4.628;2023-03-01T11:25:33;29.97;;;3.70;;
71600;SDS011;59446;52.192;4.628;2023-03-01T11:28:02;18.35;;;3.17;;
71600;SDS011;59446;52.192;4.628;2023-03-01T11:30:40;22.52;;;3.60;;
71600;SDS011;59446;52.192;4.628;2023-03-01T11:33:16;18.92;;;3.42;;
71600;SDS011;59446;52.192;4.628;2023-03-01T11:36:00;17.40;;;2.67;;
71600;SDS011;59446;52.192;4.628;2023-03-01T11:38:40;20.17;;;2.70;;
71600;SDS011;59446;52.192;4.628;2023-03-01T11:41:10;8.73;;;1.92;;
71600;SDS011;59446;52.192;4.628;2023-03-01T11:43:49;10.40;;;1.80;;
71600;SDS011;59446;52.192;4.628;2023-03-01T11:46:38;12.00;;;2.30;;
71600;SDS011;59446;52.192;4.628;2023-03-01T11:50:13;7.13;;;1.60;;
71600;SDS011;59446;52.192;4.628;2023-03-01T11:57:47;6.47;;;1.95;;
71600;SDS011;59446;52.192;4.628;2023-03-01T12:11:17;6.93;;;1.30;;
71600;SDS011;59446;52.192;4.628;2023-03-01T12:19:30;3.27;;;1.10;;
71600;SDS011;59446;52.192;4.628;2023-03-01T12:22:21;4.47;;;1.35;;
71600;SDS011;59446;52.192;4.628;2023-03-01T12:30:31;5.53;;;1.00;;
71600;SDS011;59446;52.192;4.628;2023-03-01T12:39:03;3.27;;;1.00;;
71600;SDS011;59446;52.192;4.628;2023-03-01T12:42:02;3.60;;;1.13;;
71600;SDS011;59446;52.192;4.628;2023-03-01T12:50:40;2.53;;;0.80;;
71600;SDS011;59446;52.192;4.628;2023-03-01T12:53:57;3.05;;;0.80;;
71600;SDS011;59446;52.192;4.628;2023-03-01T12:56:17;3.50;;;0.93;;
71600;SDS011;59446;52.192;4.628;2023-03-01T13:01:51;3.03;;;0.95;;
71600;SDS011;59446;52.192;4.628;2023-03-01T13:04:30;2.95;;;0.90;;
71600;SDS011;59446;52.192;4.628;2023-03-01T13:13:11;4.88;;;0.75;;
71600;SDS011;59446;52.192;4.628;2023-03-01T13:15:45;3.17;;;1.07;;
71600;SDS011;59446;52.192;4.628;2023-03-01T13:20:57;1.98;;;0.90;;
71600;SDS011;59446;52.192;4.628;2023-03-01T13:23:26;2.55;;;0.93;;
71600;SDS011;59446;52.192;4.628;2023-03-01T13:26:08;4.07;;;1.17;;
71600;SDS011;59446;52.192;4.628;2023-03-01T13:31:54;2.97;;;0.90;;
71600;SDS011;59446;52.192;4.628;2023-03-01T13:34:00;3.97;;;1.10;;
71600;SDS011;59446;52.192;4.628;2023-03-01T13:39:00;2.63;;;0.82;;
71600;SDS011;59446;52.192;4.628;2023-03-01T13:41:48;3.30;;;1.07;;
71600;SDS011;59446;52.192;4.628;2023-03-01T13:44:21;3.70;;;1.20;;
71600;SDS011;59446;52.192;4.628;2023-03-01T13:46:51;4.03;;;0.85;;
71600;SDS011;59446;52.192;4.628;2023-03-01T13:49:22;2.75;;;0.95;;
71600;SDS011;59446;52.192;4.628;2023-03-01T13:51:51;1.77;;;0.73;;
71600;SDS011;59446;52.192;4.628;2023-03-01T13:54:28;2.70;;;0.98;;
71600;SDS011;59446;52.192;4.628;2023-03-01T13:56:56;1.98;;;0.90;;
71600;SDS011;59446;52.192;4.628;2023-03-01T13:59:24;2.43;;;0.80;;
71600;SDS011;59446;52.192;4.628;2023-03-01T14:01:56;2.28;;;0.88;;
71600;SDS011;59446;52.192;4.628;2023-03-01T14:04:30;2.65;;;0.80;;
71600;SDS011;59446;52.192;4.628;2023-03-01T14:07:10;2.87;;;1.00;;
71600;SDS011;59446;52.192;4.628;2023-03-01T14:09:42;1.85;;;0.90;;
71600;SDS011;59446;52.192;4.628;2023-03-01T14:12:15;2.70;;;1.00;;
71600;SDS011;59446;52.192;4.628;2023-03-01T14:15:09;1.73;;;0.90;;
71600;SDS011;59446;52.192;4.628;2023-03-01T14:18:34;1.70;;;0.80;;
71600;SDS011;59446;52.192;4.628;2023-03-01T14:20:45;1.80;;;0.75;;
71600;SDS011;59446;52.192;4.628;2023-03-01T14:23:17;1.83;;;0.77;;
71600;SDS011;59446;52.192;4.628;2023-03-01T14:25:48;1.80;;;0.80;;
71600;SDS011;59446;52.192;4.628;2023-03-01T14:30:42;1.73;;;0.83;;
71600;SDS011;59446;52.192;4.628;2023-03-01T14:36:10;1.17;;;0.80;;
71600;SDS011;59446;52.192;4.628;2023-03-01T14:38:44;1.52;;;0.57;;
71600;SDS011;59446;52.192;4.628;2023-03-01T14:41:15;1.67;;;0.88;;
71600;SDS011;59446;52.192;4.628;2023-03-01T14:43:46;1.08;;;0.70;;
71600;SDS011;59446;52.192;4.628;2023-03-01T14:46:22;1.57;;;0.70;;
71600;SDS011;59446;52.192;4.628;2023-03-01T14:48:57;1.13;;;0.63;;
71600;SDS011;59446;52.192;4.628;2023-03-01T14:51:27;1.85;;;0.90;;
71600;SDS011;59446;52.192;4.628;2023-03-01T14:53:53;1.23;;;0.70;;
71600;SDS011;59446;52.192;4.628;2023-03-01T14:56:19;1.33;;;0.70;;
71600;SDS011;59446;52.192;4.628;2023-03-01T14:58:45;0.93;;;0.60;;
71600;SDS011;59446;52.192;4.628;2023-03-01T15:01:16;1.17;;;0.68;;
71600;SDS011;59446;52.192;4.628;2023-03-01T15:03:43;1.35;;;0.80;;
71600;SDS011;59446;52.192;4.628;2023-03-01T15:06:14;1.75;;;0.60;;
71600;SDS011;59446;52.192;4.628;2023-03-01T15:08:45;3.10;;;1.17;;
71600;SDS011;59446;52.192;4.628;2023-03-01T15:11:24;3.90;;;0.57;;
71600;SDS011;59446;52.192;4.628;2023-03-01T15:13:54;2.35;;;0.70;;
71600;SDS011;59446;52.192;4.628;2023-03-01T15:16:23;1.37;;;0.63;;
71600;SDS011;59446;52.192;4.628;2023-03-01T15:18:52;0.90;;;0.60;;
71600;SDS011;59446;52.192;4.628;2023-03-01T15:26:27;0.98;;;0.63;;
71600;SDS011;59446;52.192;4.628;2023-03-01T15:28:54;1.08;;;0.55;;
71600;SDS011;59446;52.192;4.628;2023-03-01T15:31:26;1.23;;;0.53;;
71600;SDS011;59446;52.192;4.628;2023-03-01T15:36:48;2.30;;;0.65;;
71600;SDS011;59446;52.192;4.628;2023-03-01T15:39:25;1.30;;;0.60;;
71600;SDS011;59446;52.192;4.628;2023-03-01T15:41:51;4.82;;;0.90;;
71600;SDS011;59446;52.192;4.628;2023-03-01T15:44:17;0.83;;;0.60;;
71600;SDS011;59446;52.192;4.628;2023-03-01T15:46:51;2.10;;;0.80;;
71600;SDS011;59446;52.192;4.628;2023-03-01T15:49:34;1.37;;;0.60;;
71600;SDS011;59446;52.192;4.628;2023-03-01T15:52:03;1.50;;;0.70;;
71600;SDS011;59446;52.192;4.628;2023-03-01T15:54:30;1.02;;;0.50;;
71600;SDS011;59446;52.192;4.628;2023-03-01T15:56:56;0.93;;;0.70;;
71600;SDS011;59446;52.192;4.628;2023-03-01T15:59:21;1.37;;;0.70;;
71600;SDS011;59446;52.192;4.628;2023-03-01T16:01:47;4.15;;;0.70;;
71600;SDS011;59446;52.192;4.628;2023-03-01T16:04:14;3.85;;;0.73;;
71600;SDS011;59446;52.192;4.628;2023-03-01T16:06:48;2.63;;;0.73;;
71600;SDS011;59446;52.192;4.628;2023-03-01T16:09:23;1.02;;;0.55;;
71600;SDS011;59446;52.192;4.628;2023-03-01T16:11:50;2.30;;;0.73;;
71600;SDS011;59446;52.192;4.628;2023-03-01T16:14:17;1.00;;;0.50;;
71600;SDS011;59446;52.192;4.628;2023-03-01T16:16:43;1.33;;;0.73;;
71600;SDS011;59446;52.192;4.628;2023-03-01T16:19:08;0.67;;;0.60;;
71600;SDS011;59446;52.192;4.628;2023-03-01T16:21:35;1.60;;;0.65;;
71600;SDS011;59446;52.192;4.628;2023-03-01T16:24:00;1.03;;;0.50;;
71600;SDS011;59446;52.192;4.628;2023-03-01T16:26:26;1.08;;;0.57;;
71600;SDS011;59446;52.192;4.628;2023-03-01T16:28:54;1.53;;;0.70;;
71600;SDS011;59446;52.192;4.628;2023-03-01T16:31:21;3.33;;;0.82;;
71600;SDS011;59446;52.192;4.628;2023-03-01T16:33:48;1.87;;;0.53;;